createdAt,value
2018-03-26T00:00:00.441Z,6.60
2018-03-26T00:02:01.466Z,6.60
2018-03-26T00:04:02.444Z,6.60
2018-03-26T00:06:03.436Z,6.60
2018-03-26T00:08:04.577Z,6.50
2018-03-26T00:10:06.275Z,6.50
2018-03-26T00:12:07.265Z,6.50
2018-03-26T00:14:08.276Z,6.50
2018-03-26T00:16:09.287Z,6.50
2018-03-26T00:18:11.008Z,6.60
2018-03-26T00:20:12.055Z,6.50
2018-03-26T00:22:13.069Z,6.60
2018-03-26T00:24:14.176Z,6.60
2018-03-26T00:26:15.213Z,6.60
2018-03-26T00:28:16.209Z,6.60
2018-03-26T00:30:17.172Z,6.50
2018-03-26T00:32:18.187Z,6.50
2018-03-26T00:34:19.877Z,6.50
2018-03-26T00:36:21.594Z,6.50
2018-03-26T00:38:22.598Z,6.50
2018-03-26T00:40:23.567Z,6.50
2018-03-26T00:42:24.556Z,6.50
2018-03-26T00:44:26.272Z,6.50
2018-03-26T00:46:27.243Z,6.50
2018-03-26T00:48:28.229Z,6.50
2018-03-26T00:50:29.237Z,6.50
2018-03-26T00:52:30.416Z,6.50
2018-03-26T00:54:31.434Z,6.50
2018-03-26T00:56:33.194Z,6.40
2018-03-26T00:58:34.189Z,6.40
2018-03-26T01:00:35.164Z,6.50
2018-03-26T01:02:36.182Z,6.50
2018-03-26T01:04:37.310Z,6.50
2018-03-26T01:06:39.298Z,6.50
2018-03-26T01:08:40.298Z,6.50
2018-03-26T01:10:41.307Z,6.50
2018-03-26T01:12:43.314Z,6.50
2018-03-26T01:14:44.268Z,6.40
2018-03-26T01:16:45.293Z,6.40
2018-03-26T01:18:46.337Z,6.40
2018-03-26T01:20:49.726Z,6.40
2018-03-26T01:22:50.709Z,6.30
2018-03-26T01:24:51.680Z,6.30
2018-03-26T01:26:53.453Z,6.30
2018-03-26T01:28:54.450Z,6.30
2018-03-26T01:30:55.418Z,6.30
2018-03-26T01:32:56.480Z,6.30
2018-03-26T01:34:58.187Z,6.30
2018-03-26T01:36:59.145Z,6.30
2018-03-26T01:39:00.213Z,6.30
2018-03-26T01:41:02.060Z,6.30
2018-03-26T01:43:03.031Z,6.30
2018-03-26T01:45:03.987Z,6.30
2018-03-26T01:47:05.696Z,6.30
2018-03-26T01:49:06.675Z,6.30
2018-03-26T01:51:07.950Z,6.30
2018-03-26T01:53:08.963Z,6.30
2018-03-26T01:55:10.665Z,6.30
2018-03-26T01:57:12.370Z,6.30
2018-03-26T01:59:13.361Z,6.30
2018-03-26T02:01:14.340Z,6.30
2018-03-26T02:03:15.287Z,6.30
2018-03-26T02:05:16.305Z,6.30
2018-03-26T02:07:17.291Z,6.30
2018-03-26T02:09:18.276Z,6.30
2018-03-26T02:11:19.242Z,6.30
2018-03-26T02:13:20.976Z,6.30
2018-03-26T02:15:22.046Z,6.30
2018-03-26T02:17:23.816Z,6.40
2018-03-26T02:19:24.799Z,6.40
2018-03-26T02:21:25.766Z,6.40
2018-03-26T02:23:26.773Z,6.40
2018-03-26T02:25:27.756Z,6.40
2018-03-26T02:27:28.714Z,6.30
2018-03-26T02:29:29.677Z,6.40
2018-03-26T02:31:30.619Z,6.40
2018-03-26T02:33:31.586Z,6.40
2018-03-26T02:35:32.603Z,6.30
2018-03-26T02:37:34.665Z,6.30
2018-03-26T02:39:35.708Z,6.30
2018-03-26T02:41:36.699Z,6.30
2018-03-26T02:43:37.740Z,6.30
2018-03-26T02:45:38.716Z,6.30
2018-03-26T02:47:39.678Z,6.30
2018-03-26T02:49:40.637Z,6.30
2018-03-26T02:51:41.620Z,6.30
2018-03-26T02:53:42.610Z,6.30
2018-03-26T02:55:43.585Z,6.30
2018-03-26T02:57:45.315Z,6.30
2018-03-26T02:59:46.301Z,6.30
2018-03-26T03:01:47.252Z,6.30
2018-03-26T03:03:48.228Z,6.20
2018-03-26T03:05:49.204Z,6.30
2018-03-26T03:07:50.169Z,6.20
2018-03-26T03:09:51.172Z,6.20
2018-03-26T03:11:52.137Z,6.20
2018-03-26T03:13:53.097Z,6.20
2018-03-26T03:15:54.078Z,6.20
2018-03-26T03:17:55.028Z,6.20
2018-03-26T03:19:56.020Z,6.20
2018-03-26T03:21:56.998Z,6.20
2018-03-26T03:23:58.065Z,6.20
2018-03-26T03:25:59.096Z,6.20
2018-03-26T03:28:00.142Z,6.10
2018-03-26T03:30:01.142Z,6.10
2018-03-26T03:32:02.932Z,6.10
2018-03-26T03:34:04.003Z,6.10
2018-03-26T03:36:04.957Z,6.10
2018-03-26T03:38:05.912Z,6.10
2018-03-26T03:40:06.867Z,6.10
2018-03-26T03:42:07.842Z,6.10
2018-03-26T03:44:08.817Z,6.10
2018-03-26T03:46:09.880Z,6.10
2018-03-26T03:48:10.849Z,6.10
2018-03-26T03:50:11.842Z,6.10
2018-03-26T03:52:12.836Z,6.10
2018-03-26T03:54:13.780Z,6.10
2018-03-26T03:56:14.797Z,6.00
2018-03-26T03:58:15.756Z,6.00
2018-03-26T04:00:16.800Z,6.00
2018-03-26T04:02:17.779Z,6.00
2018-03-26T04:04:18.780Z,6.00
2018-03-26T04:06:19.824Z,5.90
2018-03-26T04:08:20.891Z,5.90
2018-03-26T04:10:21.881Z,5.90
2018-03-26T04:12:22.891Z,5.90
2018-03-26T04:14:23.888Z,5.90
2018-03-26T04:16:25.598Z,5.90
2018-03-26T04:18:26.573Z,5.90
2018-03-26T04:20:27.565Z,5.80
2018-03-26T04:22:28.541Z,5.80
2018-03-26T04:24:29.518Z,5.80
2018-03-26T04:26:30.464Z,5.80
2018-03-26T04:28:31.436Z,5.90
2018-03-26T04:30:33.135Z,5.80
2018-03-26T04:32:34.091Z,5.80
2018-03-26T04:34:35.061Z,5.80
2018-03-26T04:36:36.042Z,5.90
2018-03-26T04:38:37.015Z,5.80
2018-03-26T04:40:37.974Z,5.80
2018-03-26T04:42:38.920Z,5.80
2018-03-26T04:44:39.926Z,5.80
2018-03-26T04:46:40.886Z,5.80
2018-03-26T04:48:41.916Z,5.80
2018-03-26T04:50:42.869Z,5.80
2018-03-26T04:52:43.836Z,5.80
2018-03-26T04:54:44.783Z,5.80
2018-03-26T04:56:45.770Z,5.70
2018-03-26T04:58:46.716Z,5.70
2018-03-26T05:00:47.679Z,5.70
2018-03-26T05:02:49.379Z,5.70
2018-03-26T05:04:50.428Z,5.70
2018-03-26T05:06:51.390Z,5.60
2018-03-26T05:08:52.353Z,5.60
2018-03-26T05:10:53.362Z,5.60
2018-03-26T05:12:54.557Z,5.60
2018-03-26T05:14:55.531Z,5.50
2018-03-26T05:16:57.298Z,5.50
2018-03-26T05:18:58.269Z,5.50
2018-03-26T05:20:59.282Z,5.50
2018-03-26T05:23:01.001Z,5.50
2018-03-26T05:25:02.026Z,5.50
2018-03-26T05:27:03.044Z,5.40
2018-03-26T05:29:04.092Z,5.40
2018-03-26T05:31:05.143Z,5.40
2018-03-26T05:33:06.047Z,5.40
2018-03-26T05:35:07.005Z,5.40
2018-03-26T05:37:07.981Z,5.40
2018-03-26T05:39:09.680Z,5.50
2018-03-26T05:41:10.637Z,5.50
2018-03-26T05:43:11.587Z,5.50
2018-03-26T05:45:12.617Z,5.50
2018-03-26T05:47:13.591Z,5.50
2018-03-26T05:49:14.570Z,5.60
2018-03-26T05:51:16.320Z,5.60
2018-03-26T05:53:18.034Z,5.70
2018-03-26T05:55:19.009Z,5.70
2018-03-26T05:57:19.968Z,5.70
2018-03-26T05:59:20.936Z,5.80
2018-03-26T06:01:22.640Z,5.80
2018-03-26T06:03:23.648Z,5.80
2018-03-26T06:05:25.346Z,5.90
2018-03-26T06:07:26.339Z,5.90
2018-03-26T06:09:28.105Z,6.00
2018-03-26T06:11:29.799Z,6.00
2018-03-26T06:13:30.781Z,6.00
2018-03-26T06:15:31.826Z,6.10
2018-03-26T06:17:33.471Z,6.10
2018-03-26T06:19:34.492Z,6.10
2018-03-26T06:21:35.476Z,6.10
2018-03-26T06:23:36.428Z,6.10
2018-03-26T06:25:37.566Z,6.10
2018-03-26T06:27:38.617Z,6.10
2018-03-26T06:29:39.621Z,6.20
2018-03-26T06:31:41.366Z,6.20
2018-03-26T06:33:42.336Z,6.20
2018-03-26T06:35:44.031Z,6.20
2018-03-26T06:37:45.956Z,6.20
2018-03-26T06:39:47.667Z,6.40
2018-03-26T06:41:48.687Z,6.40
2018-03-26T06:43:49.772Z,6.40
2018-03-26T06:45:50.738Z,6.40
2018-03-26T06:47:51.699Z,6.30
2018-03-26T06:49:52.674Z,6.30
2018-03-26T06:51:54.347Z,6.20
2018-03-26T06:53:55.329Z,6.20
2018-03-26T06:55:56.302Z,6.30
2018-03-26T06:57:57.247Z,6.20
2018-03-26T06:59:58.199Z,6.20
2018-03-26T07:01:59.171Z,6.30
2018-03-26T07:04:00.153Z,6.20
2018-03-26T07:06:01.112Z,6.20
2018-03-26T07:08:02.072Z,6.30
2018-03-26T07:10:03.085Z,6.30
2018-03-26T07:12:04.041Z,6.30
2018-03-26T07:14:05.005Z,6.20
2018-03-26T07:16:05.989Z,6.30
2018-03-26T07:18:06.951Z,6.20
2018-03-26T07:20:07.907Z,6.30
2018-03-26T07:22:08.925Z,6.40
2018-03-26T07:24:09.932Z,6.50
2018-03-26T07:26:10.900Z,6.60
2018-03-26T07:28:12.595Z,6.60
2018-03-26T07:30:13.575Z,6.60
2018-03-26T07:32:14.607Z,6.70
2018-03-26T07:34:15.576Z,6.80
2018-03-26T07:36:16.564Z,6.90
2018-03-26T07:38:17.541Z,6.90
2018-03-26T07:40:18.512Z,7.00
2018-03-26T07:42:19.468Z,7.10
2018-03-26T07:44:20.467Z,7.10
2018-03-26T07:46:21.426Z,7.20
2018-03-26T07:48:23.107Z,7.30
2018-03-26T07:50:24.061Z,7.30
2018-03-26T07:52:25.042Z,7.40
2018-03-26T07:54:26.790Z,7.60
2018-03-26T07:56:28.588Z,7.70
2018-03-26T07:58:29.572Z,7.60
2018-03-26T08:00:30.645Z,7.70
2018-03-26T08:02:31.700Z,7.80
2018-03-26T08:04:32.656Z,7.80
2018-03-26T08:06:34.448Z,7.80
2018-03-26T08:08:35.437Z,7.80
2018-03-26T08:10:36.411Z,7.80
2018-03-26T08:12:37.397Z,7.80
2018-03-26T08:14:38.343Z,7.70
2018-03-26T08:16:39.770Z,7.60
2018-03-26T08:18:40.731Z,7.40
2018-03-26T08:20:41.723Z,7.20
2018-03-26T08:22:43.453Z,7.40
2018-03-26T08:24:44.476Z,7.40
2018-03-26T08:26:46.185Z,7.50
2018-03-26T08:28:47.176Z,7.50
2018-03-26T08:30:48.933Z,7.50
2018-03-26T08:32:50.635Z,7.70
2018-03-26T08:34:51.637Z,7.70
2018-03-26T08:36:52.606Z,8.00
2018-03-26T08:38:54.381Z,8.10
2018-03-26T08:40:55.692Z,8.10
2018-03-26T08:42:56.694Z,8.10
2018-03-26T08:44:57.684Z,8.20
2018-03-26T08:46:58.668Z,8.00
2018-03-26T08:49:00.380Z,9.10
2018-03-26T08:51:01.457Z,9.10
2018-03-26T08:53:02.439Z,8.90
2018-03-26T08:55:03.462Z,8.90
2018-03-26T08:57:05.162Z,8.70
2018-03-26T08:59:06.134Z,8.70
2018-03-26T09:01:07.101Z,8.70
2018-03-26T09:03:08.110Z,8.50
2018-03-26T09:05:09.192Z,8.60
2018-03-26T09:07:10.191Z,8.50
2018-03-26T09:09:11.183Z,8.30
2018-03-26T09:11:12.236Z,7.80
2018-03-26T09:13:13.274Z,7.80
2018-03-26T09:15:14.354Z,7.80
2018-03-26T09:17:16.151Z,8.60
2018-03-26T09:19:17.120Z,8.60
2018-03-26T09:21:18.086Z,9.10
2018-03-26T09:23:19.039Z,9.10
2018-03-26T09:25:20.017Z,9.50
2018-03-26T09:27:21.717Z,9.40
2018-03-26T09:29:22.679Z,9.40
2018-03-26T09:31:23.778Z,9.50
2018-03-26T09:33:24.848Z,9.80
2018-03-26T09:35:25.790Z,10.00
2018-03-26T09:37:26.765Z,9.90
2018-03-26T09:39:27.721Z,9.80
2018-03-26T09:41:28.701Z,9.70
2018-03-26T09:43:30.420Z,10.00
2018-03-26T09:45:31.429Z,10.00
2018-03-26T09:47:32.397Z,9.80
2018-03-26T09:49:33.382Z,9.70
2018-03-26T09:51:34.534Z,9.70
2018-03-26T09:53:36.238Z,11.00
2018-03-26T09:55:37.202Z,11.00
2018-03-26T09:57:38.160Z,11.30
2018-03-26T09:59:40.217Z,11.70
2018-03-26T10:01:47.646Z,10.80
2018-03-26T10:03:49.205Z,10.70
2018-03-26T10:05:50.239Z,11.60
2018-03-26T10:07:51.252Z,11.80
2018-03-26T10:09:52.232Z,11.60
2018-03-26T10:11:53.233Z,11.00
2018-03-26T10:13:54.223Z,10.90
2018-03-26T10:15:55.215Z,10.40
2018-03-26T10:17:56.222Z,10.20
2018-03-26T10:19:57.199Z,10.70
2018-03-26T10:21:58.942Z,10.60
2018-03-26T10:23:59.944Z,10.60
2018-03-26T10:26:02.876Z,10.50
2018-03-26T10:28:03.865Z,10.50
2018-03-26T10:30:05.610Z,10.40
2018-03-26T10:32:07.377Z,10.50
2018-03-26T10:34:08.373Z,10.50
2018-03-26T10:36:09.542Z,10.10
2018-03-26T10:38:10.566Z,10.20
2018-03-26T10:40:12.949Z,10.20
2018-03-26T10:42:13.982Z,10.40
2018-03-26T10:44:14.933Z,10.60
2018-03-26T10:46:15.912Z,10.90
2018-03-26T10:48:17.056Z,10.30
2018-03-26T10:50:18.162Z,10.70
2018-03-26T10:52:19.308Z,10.80
2018-03-26T10:54:20.261Z,10.30
2018-03-26T10:56:21.286Z,10.10
2018-03-26T10:58:23.047Z,9.80
2018-03-26T11:00:24.746Z,9.80
2018-03-26T11:02:25.693Z,9.80
2018-03-26T11:04:26.698Z,9.80
2018-03-26T11:06:28.409Z,9.30
2018-03-26T11:08:29.468Z,9.30
2018-03-26T11:10:30.429Z,9.30
2018-03-26T11:12:31.437Z,9.50
2018-03-26T11:14:32.450Z,9.40
2018-03-26T11:16:33.409Z,9.40
2018-03-26T11:18:35.155Z,9.00
2018-03-26T11:20:36.175Z,9.00
2018-03-26T11:22:37.182Z,9.20
2018-03-26T11:24:38.241Z,8.90
2018-03-26T11:26:39.224Z,8.80
2018-03-26T11:28:40.239Z,9.00
2018-03-26T11:30:41.233Z,9.00
2018-03-26T11:32:42.219Z,9.00
2018-03-26T11:34:43.188Z,9.20
2018-03-26T11:36:46.132Z,9.50
2018-03-26T11:38:47.100Z,9.40
2018-03-26T11:40:48.074Z,9.40
2018-03-26T11:42:49.117Z,9.60
2018-03-26T11:44:50.104Z,9.50
2018-03-26T11:46:51.217Z,9.70
2018-03-26T11:48:52.356Z,9.70
2018-03-26T11:50:53.338Z,9.40
2018-03-26T11:52:54.308Z,9.50
2018-03-26T11:54:55.263Z,9.40
2018-03-26T11:56:56.982Z,9.00
2018-03-26T11:58:57.989Z,8.90
2018-03-26T12:00:59.026Z,8.90
2018-03-26T12:03:00.018Z,9.10
2018-03-26T12:05:00.984Z,9.10
2018-03-26T12:07:01.984Z,8.80
2018-03-26T12:09:02.968Z,8.40
2018-03-26T12:11:04.016Z,8.60
2018-03-26T12:13:05.096Z,8.40
2018-03-26T12:15:05.975Z,8.10
2018-03-26T12:17:06.932Z,8.20
2018-03-26T12:19:07.984Z,8.40
2018-03-26T12:21:09.004Z,8.40
2018-03-26T12:23:22.361Z,8.40
2018-03-26T12:25:23.401Z,8.30
2018-03-26T12:27:25.098Z,8.00
2018-03-26T12:29:38.467Z,8.00
2018-03-26T12:31:39.677Z,8.10
2018-03-26T12:33:52.968Z,8.10
2018-03-26T12:35:54.709Z,8.20
2018-03-26T12:37:55.708Z,8.20
2018-03-26T12:39:56.741Z,8.20
2018-03-26T12:41:57.680Z,8.20
2018-03-26T12:43:58.665Z,8.10
2018-03-26T12:46:12.056Z,8.00
2018-03-26T12:48:13.872Z,8.50
2018-03-26T12:50:15.572Z,8.60
2018-03-26T12:52:28.956Z,8.60
2018-03-26T12:54:29.929Z,8.50
2018-03-26T12:56:30.917Z,8.40
2018-03-26T12:58:48.356Z,8.40
2018-03-26T13:01:01.988Z,8.40
2018-03-26T13:03:03.210Z,8.40
2018-03-26T13:05:04.189Z,8.30
2018-03-26T13:07:05.880Z,8.20
2018-03-26T13:09:06.872Z,8.20
2018-03-26T13:11:07.830Z,8.10
2018-03-26T13:13:09.593Z,8.30
2018-03-26T13:15:11.616Z,8.20
2018-03-26T13:17:12.668Z,8.10
2018-03-26T13:19:13.708Z,8.10
2018-03-26T13:21:14.669Z,8.00
2018-03-26T13:23:15.668Z,8.20
2018-03-26T13:25:16.679Z,8.30
2018-03-26T13:27:17.792Z,8.20
2018-03-26T13:29:18.798Z,8.30
2018-03-26T13:31:19.745Z,8.20
2018-03-26T13:33:21.492Z,8.10
2018-03-26T13:35:22.465Z,8.00
2018-03-26T13:37:23.449Z,8.10
2018-03-26T13:39:25.170Z,8.10
2018-03-26T13:41:26.874Z,7.80
2018-03-26T13:43:27.916Z,7.80
2018-03-26T13:45:28.865Z,8.00
2018-03-26T13:47:29.848Z,8.10
2018-03-26T13:49:30.987Z,8.10
2018-03-26T13:51:31.959Z,8.20
2018-03-26T13:53:32.980Z,8.10
2018-03-26T13:55:33.960Z,8.10
2018-03-26T13:57:35.692Z,8.20
2018-03-26T13:59:36.694Z,8.20
2018-03-26T14:01:37.739Z,8.10
2018-03-26T14:03:38.716Z,8.30
2018-03-26T14:05:39.815Z,8.10
2018-03-26T14:07:41.518Z,8.20
2018-03-26T14:09:54.741Z,8.20
2018-03-26T14:12:08.223Z,8.20
2018-03-26T14:14:21.710Z,8.00
2018-03-26T14:16:35.201Z,7.90
2018-03-26T14:18:36.229Z,7.80
2018-03-26T14:20:37.222Z,7.60
2018-03-26T14:22:38.236Z,7.60
2018-03-26T14:24:39.232Z,7.30
2018-03-26T14:26:41.012Z,7.20
2018-03-26T14:28:42.189Z,7.20
2018-03-26T14:30:43.166Z,7.10
2018-03-26T14:32:44.207Z,7.10
2018-03-26T14:34:53.491Z,7.10
2018-03-26T14:36:54.499Z,7.10
2018-03-26T14:38:55.489Z,7.10
2018-03-26T14:40:56.474Z,7.20
2018-03-26T14:42:57.436Z,7.10
2018-03-26T14:44:58.523Z,7.10
2018-03-26T14:47:00.269Z,6.90
2018-03-26T14:49:01.992Z,7.00
2018-03-26T14:51:03.016Z,7.00
2018-03-26T14:53:04.025Z,7.10
2018-03-26T14:55:05.022Z,7.20
2018-03-26T14:57:06.065Z,7.30
2018-03-26T14:59:07.021Z,7.30
2018-03-26T15:01:08.078Z,7.20
2018-03-26T15:03:09.102Z,7.00
2018-03-26T15:05:10.077Z,7.20
2018-03-26T15:07:11.084Z,7.20
2018-03-26T15:09:12.068Z,7.40
2018-03-26T15:11:13.052Z,7.40
2018-03-26T15:13:14.784Z,7.20
2018-03-26T15:15:15.778Z,7.20
2018-03-26T15:17:17.541Z,7.30
2018-03-26T15:19:18.568Z,7.30
2018-03-26T15:21:20.319Z,7.20
2018-03-26T15:23:21.315Z,7.20
2018-03-26T15:25:22.334Z,7.20
2018-03-26T15:27:23.432Z,7.10
2018-03-26T15:29:24.367Z,7.00
2018-03-26T15:31:25.570Z,6.90
2018-03-26T15:33:26.529Z,6.90
2018-03-26T15:35:27.499Z,6.90
2018-03-26T15:37:28.493Z,6.90
2018-03-26T15:39:29.510Z,7.00
2018-03-26T15:41:30.547Z,7.00
2018-03-26T15:43:31.587Z,7.10
2018-03-26T15:45:32.585Z,6.90
2018-03-26T15:47:33.652Z,6.90
2018-03-26T15:49:34.639Z,6.90
2018-03-26T15:51:35.652Z,6.80
2018-03-26T15:53:36.668Z,6.80
2018-03-26T15:55:37.664Z,6.90
2018-03-26T15:57:38.652Z,6.90
2018-03-26T15:59:39.831Z,6.80
2018-03-26T16:01:41.653Z,6.80
2018-03-26T16:03:42.827Z,6.80
2018-03-26T16:05:43.898Z,6.70
2018-03-26T16:07:44.858Z,6.70
2018-03-26T16:09:45.870Z,6.70
2018-03-26T16:11:47.476Z,6.60
2018-03-26T16:13:48.448Z,6.70
2018-03-26T16:15:49.420Z,6.60
2018-03-26T16:17:50.406Z,6.50
2018-03-26T16:19:52.128Z,6.50
2018-03-26T16:21:53.105Z,6.50
2018-03-26T16:23:54.086Z,6.50
2018-03-26T16:25:55.808Z,6.60
2018-03-26T16:27:56.784Z,6.60
2018-03-26T16:29:57.810Z,6.50
2018-03-26T16:31:59.536Z,6.60
2018-03-26T16:34:00.585Z,6.60
2018-03-26T16:36:01.564Z,6.80
2018-03-26T16:38:02.554Z,6.80
2018-03-26T16:40:03.534Z,6.90
2018-03-26T16:42:16.909Z,6.80
2018-03-26T16:44:18.622Z,6.90
2018-03-26T16:46:20.555Z,6.90
2018-03-26T16:48:21.524Z,7.00
2018-03-26T16:50:22.481Z,7.10
2018-03-26T16:52:23.472Z,7.10
2018-03-26T16:54:25.195Z,7.00
2018-03-26T16:56:26.287Z,7.00
2018-03-26T16:58:27.431Z,6.90
2018-03-26T17:00:28.547Z,6.80
2018-03-26T17:02:29.543Z,6.60
2018-03-26T17:04:30.539Z,6.60
2018-03-26T17:06:31.500Z,6.50
2018-03-26T17:08:32.464Z,6.50
2018-03-26T17:10:34.166Z,6.20
2018-03-26T17:12:35.157Z,6.20
2018-03-26T17:14:36.148Z,6.00
2018-03-26T17:16:37.153Z,5.90
2018-03-26T17:18:38.157Z,5.80
2018-03-26T17:20:39.921Z,5.60
2018-03-26T17:22:40.930Z,5.60
2018-03-26T17:24:42.660Z,5.50
2018-03-26T17:26:43.697Z,5.50
2018-03-26T17:28:44.729Z,5.40
2018-03-26T17:30:45.708Z,5.30
2018-03-26T17:32:46.771Z,5.30
2018-03-26T17:34:47.733Z,5.20
2018-03-26T17:36:48.689Z,5.10
2018-03-26T17:38:50.436Z,5.00
2018-03-26T17:40:51.396Z,5.00
2018-03-26T17:42:53.223Z,4.80
2018-03-26T17:44:54.216Z,4.80
2018-03-26T17:46:55.198Z,4.80
2018-03-26T17:48:56.182Z,4.70
2018-03-26T17:50:57.152Z,4.60
2018-03-26T17:52:58.160Z,4.60
2018-03-26T17:54:59.157Z,4.50
2018-03-26T17:57:00.334Z,4.50
2018-03-26T17:59:01.333Z,4.50
2018-03-26T18:01:03.102Z,4.40
2018-03-26T18:03:04.818Z,4.40
2018-03-26T18:05:05.850Z,4.40
2018-03-26T18:07:06.861Z,4.40
2018-03-26T18:09:07.845Z,4.30
2018-03-26T18:11:08.844Z,4.30
2018-03-26T18:13:10.569Z,4.20
2018-03-26T18:15:12.547Z,4.20
2018-03-26T18:17:13.538Z,4.20
2018-03-26T18:19:14.534Z,4.20
2018-03-26T18:21:15.627Z,4.10
2018-03-26T18:23:16.569Z,4.10
2018-03-26T18:25:17.632Z,4.10
2018-03-26T18:27:18.626Z,4.00
2018-03-26T18:29:19.612Z,4.00
2018-03-26T18:31:20.635Z,3.70
2018-03-26T18:33:21.588Z,3.70
2018-03-26T18:35:23.364Z,3.80
2018-03-26T18:37:24.322Z,3.80
2018-03-26T18:39:25.321Z,3.70
2018-03-26T18:41:26.398Z,3.70
2018-03-26T18:43:28.159Z,3.60
2018-03-26T18:45:29.900Z,3.60
2018-03-26T18:47:30.972Z,3.60
2018-03-26T18:49:32.718Z,3.50
2018-03-26T18:51:33.729Z,3.50
2018-03-26T18:53:34.713Z,3.50
2018-03-26T18:55:35.705Z,3.40
2018-03-26T18:57:36.700Z,3.40
2018-03-26T18:59:37.706Z,3.40
2018-03-26T19:01:38.744Z,3.30
2018-03-26T19:03:39.718Z,3.30
2018-03-26T19:05:40.748Z,3.30
2018-03-26T19:07:41.733Z,3.30
2018-03-26T19:09:42.720Z,3.30
2018-03-26T19:11:43.729Z,3.30
2018-03-26T19:13:44.751Z,3.30
2018-03-26T19:15:45.784Z,3.20
2018-03-26T19:17:46.780Z,3.20
2018-03-26T19:19:47.780Z,3.30
2018-03-26T19:21:48.805Z,3.30
2018-03-26T19:23:49.820Z,3.30
2018-03-26T19:25:50.784Z,3.20
2018-03-26T19:27:51.772Z,3.20
2018-03-26T19:29:59.764Z,3.20
2018-03-26T19:32:03.984Z,3.20
2018-03-26T19:34:10.262Z,3.10
2018-03-26T19:36:18.458Z,3.00
2018-03-26T19:38:26.590Z,2.80
2018-03-26T19:42:59.035Z,2.50
2018-03-26T19:45:00.080Z,2.50
2018-03-26T19:47:01.164Z,2.60
2018-03-26T19:49:02.199Z,2.60
2018-03-26T19:51:03.212Z,2.60
2018-03-26T19:53:04.223Z,2.70
2018-03-26T19:55:05.976Z,2.70
2018-03-26T19:57:07.038Z,2.70
2018-03-26T19:59:08.073Z,2.70
2018-03-26T20:01:09.809Z,2.70
2018-03-26T20:03:10.804Z,2.60
2018-03-26T20:05:12.588Z,2.60
2018-03-26T20:07:13.765Z,2.60
2018-03-26T20:09:14.753Z,2.60
2018-03-26T20:11:16.532Z,2.60
2018-03-26T20:13:17.584Z,2.50
2018-03-26T20:15:18.640Z,2.50
2018-03-26T20:17:20.378Z,2.50
2018-03-26T20:19:22.149Z,2.50
2018-03-26T20:21:23.160Z,2.50
2018-03-26T20:23:24.143Z,2.50
2018-03-26T20:25:25.968Z,2.40
2018-03-26T20:27:26.991Z,2.40
2018-03-26T20:29:28.036Z,2.40
2018-03-26T20:31:29.048Z,2.40
2018-03-26T20:33:30.801Z,2.40
2018-03-26T20:35:32.444Z,2.40
2018-03-26T20:37:33.516Z,2.40
2018-03-26T20:39:34.556Z,2.40
2018-03-26T20:41:36.270Z,2.30
2018-03-26T20:43:37.254Z,2.30
2018-03-26T20:45:38.253Z,2.30
2018-03-26T20:47:39.259Z,2.30
2018-03-26T20:49:40.239Z,2.30
2018-03-26T20:51:41.202Z,2.20
2018-03-26T20:53:42.917Z,2.30
2018-03-26T20:55:43.958Z,2.30
2018-03-26T20:57:44.930Z,2.30
2018-03-26T20:59:46.082Z,2.30
2018-03-26T21:01:47.078Z,2.30
2018-03-26T21:03:48.068Z,2.30
2018-03-26T21:05:49.042Z,2.30
2018-03-26T21:07:50.016Z,2.30
2018-03-26T21:09:51.005Z,2.30
2018-03-26T21:11:52.027Z,2.20
2018-03-26T21:13:53.038Z,2.10
2018-03-26T21:15:54.066Z,2.00
2018-03-26T21:17:55.142Z,2.00
2018-03-26T21:19:56.172Z,2.00
2018-03-26T21:21:57.229Z,2.00
2018-03-26T21:23:58.220Z,2.00
2018-03-26T21:25:59.345Z,2.00
2018-03-26T21:28:00.337Z,2.10
2018-03-26T21:30:02.341Z,2.10
2018-03-26T21:32:03.407Z,2.00
2018-03-26T21:34:04.414Z,2.10
2018-03-26T21:36:05.516Z,2.10
2018-03-26T21:38:06.661Z,2.00
2018-03-26T21:40:07.688Z,2.10
2018-03-26T21:42:08.787Z,2.10
2018-03-26T21:44:09.915Z,2.10
2018-03-26T21:46:10.978Z,2.10
2018-03-26T21:48:13.141Z,2.10
2018-03-26T21:50:14.362Z,2.10
2018-03-26T21:52:15.473Z,2.10
2018-03-26T21:54:17.489Z,2.10
2018-03-26T21:56:18.686Z,2.10
2018-03-26T21:58:19.767Z,2.10
2018-03-26T22:00:20.907Z,2.00
2018-03-26T22:02:21.985Z,1.90
2018-03-26T22:04:23.133Z,2.00
2018-03-26T22:06:24.288Z,2.00
2018-03-26T22:08:25.387Z,2.00
2018-03-26T22:10:27.300Z,2.00
2018-03-26T22:12:28.360Z,2.00
2018-03-26T22:14:29.421Z,2.10
2018-03-26T22:16:30.497Z,2.00
2018-03-26T22:18:32.351Z,2.10
2018-03-26T22:20:33.419Z,2.00
2018-03-26T22:22:34.573Z,2.10
2018-03-26T22:24:36.444Z,2.10
2018-03-26T22:26:38.268Z,2.10
2018-03-26T22:28:39.534Z,2.10
2018-03-26T22:30:40.564Z,2.10
2018-03-26T22:32:41.572Z,2.10
2018-03-26T22:34:42.583Z,2.00
2018-03-26T22:36:43.577Z,2.00
2018-03-26T22:38:44.768Z,1.90
2018-03-26T22:40:45.788Z,1.90
2018-03-26T22:42:46.866Z,1.90
2018-03-26T22:44:48.049Z,1.80
2018-03-26T22:46:49.126Z,1.70
2018-03-26T22:48:50.331Z,1.70
2018-03-26T22:50:51.649Z,1.60
2018-03-26T22:52:52.688Z,1.60
2018-03-26T22:54:53.707Z,1.60
2018-03-26T22:56:54.829Z,1.70
2018-03-26T22:58:55.825Z,1.70
2018-03-26T23:00:56.953Z,1.70
2018-03-26T23:02:57.978Z,1.70
2018-03-26T23:04:59.771Z,1.70
2018-03-26T23:07:00.811Z,1.70
2018-03-26T23:09:01.780Z,1.70
2018-03-26T23:11:02.914Z,1.70
2018-03-26T23:13:03.914Z,1.70
2018-03-26T23:15:09.600Z,1.70
2018-03-26T23:17:10.635Z,1.70
2018-03-26T23:19:11.636Z,1.60
2018-03-26T23:21:12.628Z,1.60
2018-03-26T23:23:14.361Z,1.60
2018-03-26T23:25:15.428Z,1.60
2018-03-26T23:27:16.467Z,1.60
2018-03-26T23:29:17.483Z,1.70
2018-03-26T23:31:18.588Z,1.70
2018-03-26T23:33:19.617Z,1.70
2018-03-26T23:35:20.643Z,1.60
2018-03-26T23:37:21.644Z,1.60
2018-03-26T23:39:22.640Z,1.50
2018-03-26T23:41:23.650Z,1.40
2018-03-26T23:43:24.665Z,1.30
2018-03-26T23:45:25.729Z,1.30
2018-03-26T23:47:27.612Z,1.20
2018-03-26T23:49:28.621Z,1.20
2018-03-26T23:51:29.645Z,1.10
2018-03-26T23:53:30.725Z,1.10
2018-03-26T23:55:31.720Z,1.10
2018-03-26T23:57:32.758Z,1.10
2018-03-26T23:59:33.744Z,0.90
